sensor_id;sensor_type;location;lat;lon;timestamp;P1;durP1;ratioP1;P2;durP2;ratioP2
6269;SDS011;3168;51.684;6.954;2023-10-19T00:02:03;6.27;;;5.80;;
6269;SDS011;3168;51.684;6.954;2023-10-19T00:04:29;7.90;;;6.97;;
6269;SDS011;3168;51.684;6.954;2023-10-19T00:06:55;6.07;;;5.57;;
6269;SDS011;3168;51.684;6.954;2023-10-19T00:09:21;6.23;;;5.80;;
6269;SDS011;3168;51.684;6.954;2023-10-19T00:11:47;7.30;;;5.67;;
6269;SDS011;3168;51.684;6.954;2023-10-19T00:14:12;11.43;;;7.40;;
6269;SDS011;3168;51.684;6.954;2023-10-19T00:16:42;6.30;;;5.70;;
6269;SDS011;3168;51.684;6.954;2023-10-19T00:19:08;9.83;;;7.47;;
6269;SDS011;3168;51.684;6.954;2023-10-19T00:21:34;11.47;;;6.83;;
6269;SDS011;3168;51.684;6.954;2023-10-19T00:24:00;7.40;;;6.70;;
6269;SDS011;3168;51.684;6.954;2023-10-19T00:26:25;6.47;;;5.93;;
6269;SDS011;3168;51.684;6.954;2023-10-19T00:28:51;7.33;;;6.60;;
6269;SDS011;3168;51.684;6.954;2023-10-19T00:31:18;9.30;;;6.67;;
6269;SDS011;3168;51.684;6.954;2023-10-19T00:33:44;10.30;;;6.23;;
6269;SDS011;3168;51.684;6.954;2023-10-19T00:36:10;7.83;;;6.73;;
6269;SDS011;3168;51.684;6.954;2023-10-19T00:38:36;5.93;;;5.43;;
6269;SDS011;3168;51.684;6.954;2023-10-19T00:41:05;7.67;;;6.97;;
6269;SDS011;3168;51.684;6.954;2023-10-19T00:43:32;5.40;;;5.00;;
6269;SDS011;3168;51.684;6.954;2023-10-19T00:45:58;6.97;;;6.30;;
6269;SDS011;3168;51.684;6.954;2023-10-19T00:48:25;7.95;;;6.30;;
6269;SDS011;3168;51.684;6.954;2023-10-19T00:50:52;7.47;;;6.47;;
6269;SDS011;3168;51.684;6.954;2023-10-19T00:53:17;7.57;;;6.90;;
6269;SDS011;3168;51.684;6.954;2023-10-19T00:55:42;8.23;;;7.53;;
6269;SDS011;3168;51.684;6.954;2023-10-19T00:58:08;9.97;;;7.40;;
6269;SDS011;3168;51.684;6.954;2023-10-19T01:00:35;11.27;;;8.13;;
6269;SDS011;3168;51.684;6.954;2023-10-19T01:03:01;7.90;;;6.43;;
6269;SDS011;3168;51.684;6.954;2023-10-19T01:05:27;10.23;;;7.07;;
6269;SDS011;3168;51.684;6.954;2023-10-19T01:07:52;6.80;;;6.20;;
6269;SDS011;3168;51.684;6.954;2023-10-19T01:10:18;10.33;;;7.03;;
6269;SDS011;3168;51.684;6.954;2023-10-19T01:12:46;10.40;;;7.20;;
6269;SDS011;3168;51.684;6.954;2023-10-19T01:15:13;6.93;;;6.03;;
6269;SDS011;3168;51.684;6.954;2023-10-19T01:17:40;7.13;;;6.40;;
6269;SDS011;3168;51.684;6.954;2023-10-19T01:20:06;9.90;;;6.60;;
6269;SDS011;3168;51.684;6.954;2023-10-19T01:22:32;8.20;;;6.93;;
6269;SDS011;3168;51.684;6.954;2023-10-19T01:24:58;8.90;;;6.53;;
6269;SDS011;3168;51.684;6.954;2023-10-19T01:27:24;6.93;;;6.33;;
6269;SDS011;3168;51.684;6.954;2023-10-19T01:29:50;6.17;;;5.67;;
6269;SDS011;3168;51.684;6.954;2023-10-19T01:32:15;11.33;;;7.67;;
6269;SDS011;3168;51.684;6.954;2023-10-19T01:34:41;7.00;;;6.40;;
6269;SDS011;3168;51.684;6.954;2023-10-19T01:37:07;11.03;;;7.57;;
6269;SDS011;3168;51.684;6.954;2023-10-19T01:39:33;9.37;;;7.10;;
6269;SDS011;3168;51.684;6.954;2023-10-19T01:41:59;8.00;;;7.30;;
6269;SDS011;3168;51.684;6.954;2023-10-19T01:44:25;7.23;;;6.60;;
6269;SDS011;3168;51.684;6.954;2023-10-19T01:46:50;8.90;;;8.03;;
6269;SDS011;3168;51.684;6.954;2023-10-19T01:49:16;7.53;;;6.97;;
6269;SDS011;3168;51.684;6.954;2023-10-19T01:51:43;8.40;;;7.70;;
6269;SDS011;3168;51.684;6.954;2023-10-19T01:54:09;8.73;;;7.83;;
6269;SDS011;3168;51.684;6.954;2023-10-19T01:56:35;7.13;;;6.40;;
6269;SDS011;3168;51.684;6.954;2023-10-19T01:59:03;11.33;;;7.73;;
6269;SDS011;3168;51.684;6.954;2023-10-19T02:01:28;8.73;;;6.57;;
6269;SDS011;3168;51.684;6.954;2023-10-19T02:03:55;6.80;;;6.20;;
6269;SDS011;3168;51.684;6.954;2023-10-19T02:06:20;10.50;;;7.57;;
6269;SDS011;3168;51.684;6.954;2023-10-19T02:08:48;6.93;;;6.23;;
6269;SDS011;3168;51.684;6.954;2023-10-19T02:11:13;12.97;;;7.93;;
6269;SDS011;3168;51.684;6.954;2023-10-19T02:13:39;10.83;;;6.27;;
6269;SDS011;3168;51.684;6.954;2023-10-19T02:16:05;6.80;;;6.10;;
6269;SDS011;3168;51.684;6.954;2023-10-19T02:18:31;9.77;;;7.67;;
6269;SDS011;3168;51.684;6.954;2023-10-19T02:20:56;10.07;;;7.67;;
6269;SDS011;3168;51.684;6.954;2023-10-19T02:23:22;6.90;;;6.20;;
6269;SDS011;3168;51.684;6.954;2023-10-19T02:25:48;6.90;;;6.27;;
6269;SDS011;3168;51.684;6.954;2023-10-19T02:28:14;8.10;;;7.50;;
6269;SDS011;3168;51.684;6.954;2023-10-19T02:30:40;7.33;;;6.73;;
6269;SDS011;3168;51.684;6.954;2023-10-19T02:33:06;8.00;;;7.17;;
6269;SDS011;3168;51.684;6.954;2023-10-19T02:35:33;9.80;;;8.03;;
6269;SDS011;3168;51.684;6.954;2023-10-19T02:37:59;13.43;;;8.20;;
6269;SDS011;3168;51.684;6.954;2023-10-19T02:40:24;14.90;;;9.20;;
6269;SDS011;3168;51.684;6.954;2023-10-19T02:42:59;7.70;;;7.10;;
6269;SDS011;3168;51.684;6.954;2023-10-19T02:45:23;10.30;;;6.70;;
6269;SDS011;3168;51.684;6.954;2023-10-19T02:47:49;9.40;;;8.43;;
6269;SDS011;3168;51.684;6.954;2023-10-19T02:50:15;8.80;;;7.90;;
6269;SDS011;3168;51.684;6.954;2023-10-19T02:52:42;8.33;;;6.27;;
6269;SDS011;3168;51.684;6.954;2023-10-19T02:55:08;8.93;;;7.80;;
6269;SDS011;3168;51.684;6.954;2023-10-19T02:57:34;9.80;;;8.47;;
6269;SDS011;3168;51.684;6.954;2023-10-19T03:00:00;8.23;;;7.43;;
6269;SDS011;3168;51.684;6.954;2023-10-19T03:02:26;9.33;;;7.40;;
6269;SDS011;3168;51.684;6.954;2023-10-19T03:04:53;10.87;;;7.63;;
6269;SDS011;3168;51.684;6.954;2023-10-19T03:07:18;8.20;;;6.97;;
6269;SDS011;3168;51.684;6.954;2023-10-19T03:09:44;8.27;;;6.70;;
6269;SDS011;3168;51.684;6.954;2023-10-19T03:12:14;9.60;;;7.93;;
6269;SDS011;3168;51.684;6.954;2023-10-19T03:14:40;7.47;;;6.90;;
6269;SDS011;3168;51.684;6.954;2023-10-19T03:17:06;6.67;;;6.03;;
6269;SDS011;3168;51.684;6.954;2023-10-19T03:19:32;7.37;;;6.60;;
6269;SDS011;3168;51.684;6.954;2023-10-19T03:21:58;5.83;;;5.43;;
6269;SDS011;3168;51.684;6.954;2023-10-19T03:24:25;6.07;;;5.50;;
6269;SDS011;3168;51.684;6.954;2023-10-19T03:26:56;6.83;;;6.37;;
6269;SDS011;3168;51.684;6.954;2023-10-19T03:29:22;7.90;;;5.97;;
6269;SDS011;3168;51.684;6.954;2023-10-19T03:31:48;6.23;;;5.80;;
6269;SDS011;3168;51.684;6.954;2023-10-19T03:34:15;6.43;;;5.83;;
6269;SDS011;3168;51.684;6.954;2023-10-19T03:36:41;5.30;;;4.90;;
6269;SDS011;3168;51.684;6.954;2023-10-19T03:39:07;4.50;;;4.20;;
6269;SDS011;3168;51.684;6.954;2023-10-19T03:41:37;2.77;;;2.67;;
6269;SDS011;3168;51.684;6.954;2023-10-19T03:44:03;5.43;;;3.47;;
6269;SDS011;3168;51.684;6.954;2023-10-19T03:46:29;3.43;;;3.23;;
6269;SDS011;3168;51.684;6.954;2023-10-19T03:48:55;3.20;;;3.10;;
6269;SDS011;3168;51.684;6.954;2023-10-19T03:51:21;3.83;;;3.63;;
6269;SDS011;3168;51.684;6.954;2023-10-19T03:53:47;7.23;;;4.00;;
6269;SDS011;3168;51.684;6.954;2023-10-19T03:56:14;3.37;;;3.27;;
6269;SDS011;3168;51.684;6.954;2023-10-19T03:58:40;2.57;;;2.47;;
6269;SDS011;3168;51.684;6.954;2023-10-19T04:01:06;3.70;;;3.53;;
6269;SDS011;3168;51.684;6.954;2023-10-19T04:03:32;3.10;;;2.93;;
6269;SDS011;3168;51.684;6.954;2023-10-19T04:05:57;4.10;;;3.23;;
6269;SDS011;3168;51.684;6.954;2023-10-19T04:08:23;4.23;;;3.93;;
6269;SDS011;3168;51.684;6.954;2023-10-19T04:10:49;4.00;;;3.70;;
6269;SDS011;3168;51.684;6.954;2023-10-19T04:13:31;5.37;;;2.97;;
6269;SDS011;3168;51.684;6.954;2023-10-19T04:15:57;3.20;;;3.10;;
6269;SDS011;3168;51.684;6.954;2023-10-19T04:18:22;3.43;;;3.10;;
6269;SDS011;3168;51.684;6.954;2023-10-19T04:20:49;5.20;;;3.40;;
6269;SDS011;3168;51.684;6.954;2023-10-19T04:23:23;3.37;;;2.67;;
6269;SDS011;3168;51.684;6.954;2023-10-19T04:25:51;2.63;;;2.50;;
6269;SDS011;3168;51.684;6.954;2023-10-19T04:28:17;3.57;;;3.27;;
6269;SDS011;3168;51.684;6.954;2023-10-19T04:30:42;3.40;;;3.20;;
6269;SDS011;3168;51.684;6.954;2023-10-19T04:33:08;3.17;;;3.07;;
6269;SDS011;3168;51.684;6.954;2023-10-19T04:35:35;3.30;;;3.10;;
6269;SDS011;3168;51.684;6.954;2023-10-19T04:38:03;3.70;;;3.60;;
6269;SDS011;3168;51.684;6.954;2023-10-19T04:40:27;2.80;;;2.60;;
6269;SDS011;3168;51.684;6.954;2023-10-19T04:42:53;3.33;;;2.53;;
6269;SDS011;3168;51.684;6.954;2023-10-19T04:45:19;3.30;;;3.20;;
6269;SDS011;3168;51.684;6.954;2023-10-19T04:47:45;3.00;;;2.80;;
6269;SDS011;3168;51.684;6.954;2023-10-19T04:50:11;2.87;;;2.77;;
6269;SDS011;3168;51.684;6.954;2023-10-19T04:52:36;5.57;;;3.10;;
6269;SDS011;3168;51.684;6.954;2023-10-19T04:55:02;2.83;;;2.70;;
6269;SDS011;3168;51.684;6.954;2023-10-19T04:57:29;10.23;;;3.77;;
6269;SDS011;3168;51.684;6.954;2023-10-19T04:59:54;3.10;;;2.90;;
6269;SDS011;3168;51.684;6.954;2023-10-19T05:02:20;6.27;;;3.30;;
6269;SDS011;3168;51.684;6.954;2023-10-19T05:04:46;6.70;;;3.20;;
6269;SDS011;3168;51.684;6.954;2023-10-19T05:07:12;4.27;;;2.80;;
6269;SDS011;3168;51.684;6.954;2023-10-19T05:09:38;2.67;;;2.57;;
6269;SDS011;3168;51.684;6.954;2023-10-19T05:12:05;2.63;;;2.53;;
6269;SDS011;3168;51.684;6.954;2023-10-19T05:14:30;2.53;;;2.43;;
6269;SDS011;3168;51.684;6.954;2023-10-19T05:16:56;2.23;;;2.13;;
6269;SDS011;3168;51.684;6.954;2023-10-19T05:19:22;3.57;;;2.77;;
6269;SDS011;3168;51.684;6.954;2023-10-19T05:21:48;3.03;;;2.77;;
6269;SDS011;3168;51.684;6.954;2023-10-19T05:24:14;2.90;;;2.80;;
6269;SDS011;3168;51.684;6.954;2023-10-19T05:26:39;9.20;;;2.77;;
6269;SDS011;3168;51.684;6.954;2023-10-19T05:29:05;2.97;;;2.77;;
6269;SDS011;3168;51.684;6.954;2023-10-19T05:31:31;2.10;;;2.10;;
6269;SDS011;3168;51.684;6.954;2023-10-19T05:33:57;6.10;;;2.93;;
6269;SDS011;3168;51.684;6.954;2023-10-19T05:36:22;3.17;;;2.30;;
6269;SDS011;3168;51.684;6.954;2023-10-19T05:38:48;3.73;;;2.67;;
6269;SDS011;3168;51.684;6.954;2023-10-19T05:41:14;3.10;;;3.00;;
6269;SDS011;3168;51.684;6.954;2023-10-19T05:43:40;1.80;;;1.70;;
6269;SDS011;3168;51.684;6.954;2023-10-19T05:46:06;2.30;;;2.20;;
6269;SDS011;3168;51.684;6.954;2023-10-19T05:48:31;2.60;;;2.40;;
6269;SDS011;3168;51.684;6.954;2023-10-19T05:50:57;3.10;;;2.90;;
6269;SDS011;3168;51.684;6.954;2023-10-19T05:53:23;5.23;;;3.40;;
6269;SDS011;3168;51.684;6.954;2023-10-19T05:55:49;4.30;;;2.87;;
6269;SDS011;3168;51.684;6.954;2023-10-19T05:58:15;4.20;;;3.20;;
6269;SDS011;3168;51.684;6.954;2023-10-19T06:00:41;2.70;;;2.60;;
6269;SDS011;3168;51.684;6.954;2023-10-19T06:03:07;2.37;;;2.27;;
6269;SDS011;3168;51.684;6.954;2023-10-19T06:05:33;2.43;;;1.97;;
6269;SDS011;3168;51.684;6.954;2023-10-19T06:07:58;5.37;;;2.10;;
6269;SDS011;3168;51.684;6.954;2023-10-19T06:10:24;2.30;;;2.20;;
6269;SDS011;3168;51.684;6.954;2023-10-19T06:12:50;4.13;;;2.70;;
6269;SDS011;3168;51.684;6.954;2023-10-19T06:15:17;3.90;;;2.30;;
6269;SDS011;3168;51.684;6.954;2023-10-19T06:17:42;2.30;;;1.90;;
6269;SDS011;3168;51.684;6.954;2023-10-19T06:20:08;5.50;;;2.77;;
6269;SDS011;3168;51.684;6.954;2023-10-19T06:22:35;2.13;;;2.03;;
6269;SDS011;3168;51.684;6.954;2023-10-19T06:25:02;4.17;;;3.33;;
6269;SDS011;3168;51.684;6.954;2023-10-19T06:27:27;3.17;;;2.97;;
6269;SDS011;3168;51.684;6.954;2023-10-19T06:29:53;2.77;;;2.10;;
6269;SDS011;3168;51.684;6.954;2023-10-19T06:32:19;3.63;;;2.90;;
6269;SDS011;3168;51.684;6.954;2023-10-19T06:34:44;2.17;;;2.10;;
6269;SDS011;3168;51.684;6.954;2023-10-19T06:37:11;2.30;;;2.10;;
6269;SDS011;3168;51.684;6.954;2023-10-19T06:39:37;2.17;;;2.17;;
6269;SDS011;3168;51.684;6.954;2023-10-19T06:42:03;2.53;;;2.43;;
6269;SDS011;3168;51.684;6.954;2023-10-19T06:44:28;5.60;;;2.10;;
6269;SDS011;3168;51.684;6.954;2023-10-19T06:46:54;2.20;;;2.10;;
6269;SDS011;3168;51.684;6.954;2023-10-19T06:49:20;2.63;;;2.53;;
6269;SDS011;3168;51.684;6.954;2023-10-19T06:51:46;2.60;;;2.50;;
6269;SDS011;3168;51.684;6.954;2023-10-19T06:54:12;5.00;;;2.97;;
6269;SDS011;3168;51.684;6.954;2023-10-19T06:56:38;3.27;;;2.60;;
6269;SDS011;3168;51.684;6.954;2023-10-19T06:59:04;2.90;;;2.70;;
6269;SDS011;3168;51.684;6.954;2023-10-19T07:01:30;4.23;;;3.93;;
6269;SDS011;3168;51.684;6.954;2023-10-19T07:03:55;3.43;;;2.63;;
6269;SDS011;3168;51.684;6.954;2023-10-19T07:06:22;4.10;;;3.33;;
6269;SDS011;3168;51.684;6.954;2023-10-19T07:08:48;2.90;;;2.70;;
6269;SDS011;3168;51.684;6.954;2023-10-19T07:11:14;2.70;;;2.50;;
6269;SDS011;3168;51.684;6.954;2023-10-19T07:13:39;3.03;;;2.83;;
6269;SDS011;3168;51.684;6.954;2023-10-19T07:16:05;2.07;;;1.97;;
6269;SDS011;3168;51.684;6.954;2023-10-19T07:18:31;3.43;;;3.30;;
6269;SDS011;3168;51.684;6.954;2023-10-19T07:20:57;2.87;;;2.67;;
6269;SDS011;3168;51.684;6.954;2023-10-19T07:23:23;3.03;;;2.93;;
6269;SDS011;3168;51.684;6.954;2023-10-19T07:25:49;6.73;;;3.07;;
6269;SDS011;3168;51.684;6.954;2023-10-19T07:28:15;2.40;;;2.30;;
6269;SDS011;3168;51.684;6.954;2023-10-19T07:30:41;3.17;;;2.80;;
6269;SDS011;3168;51.684;6.954;2023-10-19T07:33:08;4.20;;;2.90;;
6269;SDS011;3168;51.684;6.954;2023-10-19T07:35:34;11.30;;;2.33;;
6269;SDS011;3168;51.684;6.954;2023-10-19T07:38:00;3.10;;;2.90;;
6269;SDS011;3168;51.684;6.954;2023-10-19T07:40:26;2.90;;;2.73;;
6269;SDS011;3168;51.684;6.954;2023-10-19T07:42:51;5.80;;;2.90;;
6269;SDS011;3168;51.684;6.954;2023-10-19T07:45:18;2.70;;;2.60;;
6269;SDS011;3168;51.684;6.954;2023-10-19T07:47:43;2.90;;;2.70;;
6269;SDS011;3168;51.684;6.954;2023-10-19T07:50:10;6.27;;;2.83;;
6269;SDS011;3168;51.684;6.954;2023-10-19T07:52:35;7.20;;;3.00;;
6269;SDS011;3168;51.684;6.954;2023-10-19T07:55:01;2.80;;;2.70;;
6269;SDS011;3168;51.684;6.954;2023-10-19T07:57:27;5.80;;;2.67;;
6269;SDS011;3168;51.684;6.954;2023-10-19T07:59:53;3.57;;;3.27;;
6269;SDS011;3168;51.684;6.954;2023-10-19T08:02:19;3.10;;;3.00;;
6269;SDS011;3168;51.684;6.954;2023-10-19T08:04:45;7.07;;;3.30;;
6269;SDS011;3168;51.684;6.954;2023-10-19T08:07:11;4.20;;;3.90;;
6269;SDS011;3168;51.684;6.954;2023-10-19T08:09:36;5.63;;;3.67;;
6269;SDS011;3168;51.684;6.954;2023-10-19T08:12:02;3.10;;;2.30;;
6269;SDS011;3168;51.684;6.954;2023-10-19T08:14:28;10.80;;;3.20;;
6269;SDS011;3168;51.684;6.954;2023-10-19T08:16:54;2.57;;;2.47;;
6269;SDS011;3168;51.684;6.954;2023-10-19T08:19:20;2.40;;;2.30;;
6269;SDS011;3168;51.684;6.954;2023-10-19T08:21:46;2.93;;;2.73;;
6269;SDS011;3168;51.684;6.954;2023-10-19T08:24:12;3.00;;;2.80;;
6269;SDS011;3168;51.684;6.954;2023-10-19T08:26:39;3.23;;;3.07;;
6269;SDS011;3168;51.684;6.954;2023-10-19T08:29:05;3.00;;;2.70;;
6269;SDS011;3168;51.684;6.954;2023-10-19T08:31:30;6.93;;;2.50;;
6269;SDS011;3168;51.684;6.954;2023-10-19T08:33:56;3.20;;;3.00;;
6269;SDS011;3168;51.684;6.954;2023-10-19T08:36:22;3.30;;;3.00;;
6269;SDS011;3168;51.684;6.954;2023-10-19T08:38:48;2.40;;;2.30;;
6269;SDS011;3168;51.684;6.954;2023-10-19T08:41:14;3.13;;;3.00;;
6269;SDS011;3168;51.684;6.954;2023-10-19T08:43:40;2.73;;;2.63;;
6269;SDS011;3168;51.684;6.954;2023-10-19T08:46:06;4.13;;;3.83;;
6269;SDS011;3168;51.684;6.954;2023-10-19T08:48:33;6.60;;;5.43;;
6269;SDS011;3168;51.684;6.954;2023-10-19T08:50:59;7.17;;;5.90;;
6269;SDS011;3168;51.684;6.954;2023-10-19T08:53:25;4.40;;;4.10;;
6269;SDS011;3168;51.684;6.954;2023-10-19T08:55:51;4.20;;;3.10;;
6269;SDS011;3168;51.684;6.954;2023-10-19T08:58:17;7.80;;;3.37;;
6269;SDS011;3168;51.684;6.954;2023-10-19T09:00:44;2.57;;;2.30;;
6269;SDS011;3168;51.684;6.954;2023-10-19T09:03:10;2.10;;;2.00;;
6269;SDS011;3168;51.684;6.954;2023-10-19T09:05:37;3.10;;;2.87;;
6269;SDS011;3168;51.684;6.954;2023-10-19T09:08:02;1.93;;;1.83;;
6269;SDS011;3168;51.684;6.954;2023-10-19T09:10:28;3.00;;;2.67;;
6269;SDS011;3168;51.684;6.954;2023-10-19T09:12:59;2.43;;;2.33;;
6269;SDS011;3168;51.684;6.954;2023-10-19T09:15:24;3.07;;;2.97;;
6269;SDS011;3168;51.684;6.954;2023-10-19T09:17:51;4.50;;;2.57;;
6269;SDS011;3168;51.684;6.954;2023-10-19T09:20:16;4.20;;;2.30;;
6269;SDS011;3168;51.684;6.954;2023-10-19T09:22:45;2.30;;;2.20;;
6269;SDS011;3168;51.684;6.954;2023-10-19T09:25:11;1.83;;;1.83;;
6269;SDS011;3168;51.684;6.954;2023-10-19T09:27:37;2.40;;;2.30;;
6269;SDS011;3168;51.684;6.954;2023-10-19T09:30:04;3.23;;;2.30;;
6269;SDS011;3168;51.684;6.954;2023-10-19T09:32:31;2.20;;;2.00;;
6269;SDS011;3168;51.684;6.954;2023-10-19T09:34:57;2.43;;;1.83;;
6269;SDS011;3168;51.684;6.954;2023-10-19T09:37:24;2.53;;;2.40;;
6269;SDS011;3168;51.684;6.954;2023-10-19T09:39:50;3.43;;;2.33;;
6269;SDS011;3168;51.684;6.954;2023-10-19T09:42:16;2.77;;;2.00;;
6269;SDS011;3168;51.684;6.954;2023-10-19T09:44:43;1.60;;;1.50;;
6269;SDS011;3168;51.684;6.954;2023-10-19T09:47:11;1.93;;;1.83;;
6269;SDS011;3168;51.684;6.954;2023-10-19T09:49:36;1.53;;;1.30;;
6269;SDS011;3168;51.684;6.954;2023-10-19T09:52:02;5.03;;;2.00;;
6269;SDS011;3168;51.684;6.954;2023-10-19T09:54:28;2.93;;;1.53;;
6269;SDS011;3168;51.684;6.954;2023-10-19T09:56:55;3.90;;;1.87;;
6269;SDS011;3168;51.684;6.954;2023-10-19T09:59:23;17.10;;;2.27;;
6269;SDS011;3168;51.684;6.954;2023-10-19T10:02:03;2.30;;;1.83;;
6269;SDS011;3168;51.684;6.954;2023-10-19T10:04:30;2.50;;;2.23;;
6269;SDS011;3168;51.684;6.954;2023-10-19T10:06:57;1.83;;;1.50;;
6269;SDS011;3168;51.684;6.954;2023-10-19T10:09:24;2.00;;;1.90;;
6269;SDS011;3168;51.684;6.954;2023-10-19T10:11:48;4.80;;;1.77;;
6269;SDS011;3168;51.684;6.954;2023-10-19T10:14:20;3.60;;;1.63;;
6269;SDS011;3168;51.684;6.954;2023-10-19T10:16:45;7.83;;;2.57;;
6269;SDS011;3168;51.684;6.954;2023-10-19T10:19:11;2.63;;;1.10;;
6269;SDS011;3168;51.684;6.954;2023-10-19T10:21:37;2.70;;;1.50;;
6269;SDS011;3168;51.684;6.954;2023-10-19T10:24:03;2.90;;;2.70;;
6269;SDS011;3168;51.684;6.954;2023-10-19T10:26:29;2.73;;;2.07;;
6269;SDS011;3168;51.684;6.954;2023-10-19T10:31:35;1.13;;;1.03;;
6269;SDS011;3168;51.684;6.954;2023-10-19T10:34:00;3.53;;;1.80;;
6269;SDS011;3168;51.684;6.954;2023-10-19T10:36:27;13.23;;;1.30;;
6269;SDS011;3168;51.684;6.954;2023-10-19T10:38:53;1.60;;;1.50;;
6269;SDS011;3168;51.684;6.954;2023-10-19T10:41:21;1.90;;;1.80;;
6269;SDS011;3168;51.684;6.954;2023-10-19T10:43:47;3.80;;;2.67;;
6269;SDS011;3168;51.684;6.954;2023-10-19T10:46:13;1.93;;;1.33;;
6269;SDS011;3168;51.684;6.954;2023-10-19T10:48:41;1.33;;;1.33;;
6269;SDS011;3168;51.684;6.954;2023-10-19T10:53:51;3.37;;;1.50;;
6269;SDS011;3168;51.684;6.954;2023-10-19T10:56:18;11.83;;;1.30;;
6269;SDS011;3168;51.684;6.954;2023-10-19T10:58:44;1.90;;;1.37;;
6269;SDS011;3168;51.684;6.954;2023-10-19T11:01:10;7.90;;;1.43;;
6269;SDS011;3168;51.684;6.954;2023-10-19T11:03:37;2.20;;;1.50;;
6269;SDS011;3168;51.684;6.954;2023-10-19T11:06:04;8.33;;;1.77;;
6269;SDS011;3168;51.684;6.954;2023-10-19T11:08:29;2.10;;;1.50;;
6269;SDS011;3168;51.684;6.954;2023-10-19T11:10:55;1.97;;;1.13;;
6269;SDS011;3168;51.684;6.954;2023-10-19T11:13:22;3.33;;;1.40;;
6269;SDS011;3168;51.684;6.954;2023-10-19T11:15:48;4.93;;;2.87;;
6269;SDS011;3168;51.684;6.954;2023-10-19T11:18:27;9.10;;;2.07;;
6269;SDS011;3168;51.684;6.954;2023-10-19T11:20:39;1.87;;;1.77;;
6269;SDS011;3168;51.684;6.954;2023-10-19T11:23:06;1.23;;;1.23;;
6269;SDS011;3168;51.684;6.954;2023-10-19T11:25:32;9.93;;;1.80;;
6269;SDS011;3168;51.684;6.954;2023-10-19T11:27:58;1.53;;;1.53;;
6269;SDS011;3168;51.684;6.954;2023-10-19T11:30:25;1.20;;;1.20;;
6269;SDS011;3168;51.684;6.954;2023-10-19T11:32:51;7.50;;;2.43;;
6269;SDS011;3168;51.684;6.954;2023-10-19T11:35:19;3.50;;;1.30;;
6269;SDS011;3168;51.684;6.954;2023-10-19T11:37:49;1.37;;;1.37;;
6269;SDS011;3168;51.684;6.954;2023-10-19T11:40:14;2.47;;;1.37;;
6269;SDS011;3168;51.684;6.954;2023-10-19T11:42:40;3.23;;;1.30;;
6269;SDS011;3168;51.684;6.954;2023-10-19T11:45:06;3.03;;;1.23;;
6269;SDS011;3168;51.684;6.954;2023-10-19T11:47:33;3.27;;;1.77;;
6269;SDS011;3168;51.684;6.954;2023-10-19T11:49:58;3.37;;;2.07;;
6269;SDS011;3168;51.684;6.954;2023-10-19T11:52:24;1.62;;;1.52;;
6269;SDS011;3168;51.684;6.954;2023-10-19T11:54:50;1.00;;;1.00;;
6269;SDS011;3168;51.684;6.954;2023-10-19T11:57:16;5.07;;;1.70;;
6269;SDS011;3168;51.684;6.954;2023-10-19T11:59:42;1.30;;;1.30;;
6269;SDS011;3168;51.684;6.954;2023-10-19T12:02:07;1.20;;;1.20;;
6269;SDS011;3168;51.684;6.954;2023-10-19T12:04:33;4.33;;;1.80;;
6269;SDS011;3168;51.684;6.954;2023-10-19T12:06:59;4.93;;;1.80;;
6269;SDS011;3168;51.684;6.954;2023-10-19T12:09:25;4.50;;;1.40;;
6269;SDS011;3168;51.684;6.954;2023-10-19T12:11:51;2.87;;;1.27;;
6269;SDS011;3168;51.684;6.954;2023-10-19T12:14:16;1.90;;;1.40;;
6269;SDS011;3168;51.684;6.954;2023-10-19T12:16:42;4.10;;;1.40;;
6269;SDS011;3168;51.684;6.954;2023-10-19T12:19:08;9.70;;;2.10;;
6269;SDS011;3168;51.684;6.954;2023-10-19T12:21:34;7.37;;;1.83;;
6269;SDS011;3168;51.684;6.954;2023-10-19T12:24:00;4.73;;;1.90;;
6269;SDS011;3168;51.684;6.954;2023-10-19T12:26:26;3.70;;;2.07;;
6269;SDS011;3168;51.684;6.954;2023-10-19T12:28:52;37.23;;;2.83;;
6269;SDS011;3168;51.684;6.954;2023-10-19T12:31:18;1.23;;;1.20;;
6269;SDS011;3168;51.684;6.954;2023-10-19T12:33:44;1.40;;;1.30;;
6269;SDS011;3168;51.684;6.954;2023-10-19T12:36:10;1.20;;;1.20;;
6269;SDS011;3168;51.684;6.954;2023-10-19T12:38:41;3.27;;;2.10;;
6269;SDS011;3168;51.684;6.954;2023-10-19T12:41:07;12.30;;;2.00;;
6269;SDS011;3168;51.684;6.954;2023-10-19T12:43:33;1.40;;;1.30;;
6269;SDS011;3168;51.684;6.954;2023-10-19T12:46:00;10.83;;;1.73;;
6269;SDS011;3168;51.684;6.954;2023-10-19T12:48:25;2.47;;;1.00;;
6269;SDS011;3168;51.684;6.954;2023-10-19T12:50:51;1.50;;;1.40;;
6269;SDS011;3168;51.684;6.954;2023-10-19T12:53:17;1.67;;;1.40;;
6269;SDS011;3168;51.684;6.954;2023-10-19T12:55:43;1.53;;;1.43;;
6269;SDS011;3168;51.684;6.954;2023-10-19T12:58:08;1.93;;;1.40;;
6269;SDS011;3168;51.684;6.954;2023-10-19T13:00:35;2.73;;;1.50;;
6269;SDS011;3168;51.684;6.954;2023-10-19T13:03:02;4.50;;;1.20;;
6269;SDS011;3168;51.684;6.954;2023-10-19T13:05:27;1.23;;;1.23;;
6269;SDS011;3168;51.684;6.954;2023-10-19T13:07:53;1.27;;;0.90;;
6269;SDS011;3168;51.684;6.954;2023-10-19T13:10:19;6.70;;;1.83;;
6269;SDS011;3168;51.684;6.954;2023-10-19T13:12:45;1.50;;;1.40;;
6269;SDS011;3168;51.684;6.954;2023-10-19T13:15:10;6.50;;;1.13;;
6269;SDS011;3168;51.684;6.954;2023-10-19T13:17:39;4.30;;;1.23;;
6269;SDS011;3168;51.684;6.954;2023-10-19T13:20:05;1.20;;;1.00;;
6269;SDS011;3168;51.684;6.954;2023-10-19T13:22:32;3.17;;;1.40;;
6269;SDS011;3168;51.684;6.954;2023-10-19T13:24:58;1.90;;;1.77;;
6269;SDS011;3168;51.684;6.954;2023-10-19T13:27:24;12.13;;;2.90;;
6269;SDS011;3168;51.684;6.954;2023-10-19T13:29:50;5.50;;;1.27;;
6269;SDS011;3168;51.684;6.954;2023-10-19T13:32:16;1.87;;;0.93;;
6269;SDS011;3168;51.684;6.954;2023-10-19T13:34:42;1.83;;;1.17;;
6269;SDS011;3168;51.684;6.954;2023-10-19T13:37:08;1.40;;;1.40;;
6269;SDS011;3168;51.684;6.954;2023-10-19T13:39:33;2.77;;;1.53;;
6269;SDS011;3168;51.684;6.954;2023-10-19T13:41:59;3.93;;;1.77;;
6269;SDS011;3168;51.684;6.954;2023-10-19T13:44:25;3.93;;;1.37;;
6269;SDS011;3168;51.684;6.954;2023-10-19T13:46:51;1.40;;;1.37;;
6269;SDS011;3168;51.684;6.954;2023-10-19T13:49:17;7.20;;;2.43;;
6269;SDS011;3168;51.684;6.954;2023-10-19T13:51:43;2.60;;;2.10;;
6269;SDS011;3168;51.684;6.954;2023-10-19T13:54:08;5.03;;;2.77;;
6269;SDS011;3168;51.684;6.954;2023-10-19T13:56:34;4.70;;;1.73;;
6269;SDS011;3168;51.684;6.954;2023-10-19T13:59:00;5.07;;;3.23;;
6269;SDS011;3168;51.684;6.954;2023-10-19T14:01:27;3.73;;;2.40;;
6269;SDS011;3168;51.684;6.954;2023-10-19T14:03:52;2.27;;;2.07;;
6269;SDS011;3168;51.684;6.954;2023-10-19T14:06:18;1.60;;;1.50;;
6269;SDS011;3168;51.684;6.954;2023-10-19T14:08:44;1.53;;;1.17;;
6269;SDS011;3168;51.684;6.954;2023-10-19T14:11:10;1.70;;;1.60;;
6269;SDS011;3168;51.684;6.954;2023-10-19T14:13:36;11.00;;;2.33;;
6269;SDS011;3168;51.684;6.954;2023-10-19T14:16:05;3.53;;;1.60;;
6269;SDS011;3168;51.684;6.954;2023-10-19T14:18:31;1.73;;;1.67;;
6269;SDS011;3168;51.684;6.954;2023-10-19T14:20:57;1.77;;;1.63;;
6269;SDS011;3168;51.684;6.954;2023-10-19T14:23:22;5.33;;;2.87;;
6269;SDS011;3168;51.684;6.954;2023-10-19T14:25:48;5.70;;;2.43;;
6269;SDS011;3168;51.684;6.954;2023-10-19T14:28:15;2.53;;;2.30;;
6269;SDS011;3168;51.684;6.954;2023-10-19T14:30:41;4.23;;;2.60;;
6269;SDS011;3168;51.684;6.954;2023-10-19T14:33:06;9.00;;;2.63;;
6269;SDS011;3168;51.684;6.954;2023-10-19T14:35:32;1.73;;;1.63;;
6269;SDS011;3168;51.684;6.954;2023-10-19T14:37:58;2.17;;;2.07;;
6269;SDS011;3168;51.684;6.954;2023-10-19T14:40:24;7.63;;;2.20;;
6269;SDS011;3168;51.684;6.954;2023-10-19T14:42:51;3.70;;;1.80;;
6269;SDS011;3168;51.684;6.954;2023-10-19T14:45:16;3.37;;;2.00;;
6269;SDS011;3168;51.684;6.954;2023-10-19T14:47:46;5.03;;;2.13;;
6269;SDS011;3168;51.684;6.954;2023-10-19T14:50:12;2.20;;;2.10;;
6269;SDS011;3168;51.684;6.954;2023-10-19T14:52:40;4.10;;;2.47;;
6269;SDS011;3168;51.684;6.954;2023-10-19T14:55:06;20.17;;;2.60;;
6269;SDS011;3168;51.684;6.954;2023-10-19T14:57:33;3.63;;;1.70;;
6269;SDS011;3168;51.684;6.954;2023-10-19T14:59:59;3.67;;;2.83;;
6269;SDS011;3168;51.684;6.954;2023-10-19T15:02:26;2.77;;;2.67;;
6269;SDS011;3168;51.684;6.954;2023-10-19T15:04:52;14.37;;;3.40;;
6269;SDS011;3168;51.684;6.954;2023-10-19T15:07:18;3.30;;;3.00;;
6269;SDS011;3168;51.684;6.954;2023-10-19T15:09:43;2.97;;;2.67;;
6269;SDS011;3168;51.684;6.954;2023-10-19T15:12:09;2.37;;;2.27;;
6269;SDS011;3168;51.684;6.954;2023-10-19T15:14:39;15.57;;;3.17;;